sensor_id;sensor_type;location;lat;lon;timestamp;temperature;humidity
33841;DHT22;20142;28.494;-16.312;2024-01-30T00:00:37;16.30;50.20
33841;DHT22;20142;28.494;-16.312;2024-01-30T00:05:39;16.20;50.50
33841;DHT22;20142;28.494;-16.312;2024-01-30T00:10:41;16.10;50.70
33841;DHT22;20142;28.494;-16.312;2024-01-30T00:15:42;16.10;51.20
33841;DHT22;20142;28.494;-16.312;2024-01-30T00:20:44;16.10;51.30
33841;DHT22;20142;28.494;-16.312;2024-01-30T00:25:46;16.00;51.70
33841;DHT22;20142;28.494;-16.312;2024-01-30T00:30:48;16.00;51.80
33841;DHT22;20142;28.494;-16.312;2024-01-30T00:35:50;15.80;51.60
33841;DHT22;20142;28.494;-16.312;2024-01-30T00:40:51;15.70;52.00
33841;DHT22;20142;28.494;-16.312;2024-01-30T00:45:53;15.60;52.00
33841;DHT22;20142;28.494;-16.312;2024-01-30T00:50:55;15.60;52.20
33841;DHT22;20142;28.494;-16.312;2024-01-30T00:55:57;15.40;52.60
33841;DHT22;20142;28.494;-16.312;2024-01-30T01:00:59;15.50;53.10
33841;DHT22;20142;28.494;-16.312;2024-01-30T01:06:00;15.40;52.70
33841;DHT22;20142;28.494;-16.312;2024-01-30T01:11:02;15.40;53.00
33841;DHT22;20142;28.494;-16.312;2024-01-30T01:16:05;15.40;53.40
33841;DHT22;20142;28.494;-16.312;2024-01-30T01:21:07;15.30;53.90
33841;DHT22;20142;28.494;-16.312;2024-01-30T01:26:09;15.40;53.90
33841;DHT22;20142;28.494;-16.312;2024-01-30T01:31:11;15.30;53.90
33841;DHT22;20142;28.494;-16.312;2024-01-30T01:36:13;15.20;54.30
33841;DHT22;20142;28.494;-16.312;2024-01-30T01:41:15;15.20;54.50
33841;DHT22;20142;28.494;-16.312;2024-01-30T01:46:17;15.20;54.50
33841;DHT22;20142;28.494;-16.312;2024-01-30T01:51:20;15.10;54.50
33841;DHT22;20142;28.494;-16.312;2024-01-30T01:56:23;15.10;54.90
33841;DHT22;20142;28.494;-16.312;2024-01-30T02:01:25;15.00;54.90
33841;DHT22;20142;28.494;-16.312;2024-01-30T02:06:28;15.00;55.10
33841;DHT22;20142;28.494;-16.312;2024-01-30T02:11:30;14.90;54.90
33841;DHT22;20142;28.494;-16.312;2024-01-30T02:16:33;14.80;55.30
33841;DHT22;20142;28.494;-16.312;2024-01-30T02:21:34;14.80;55.20
33841;DHT22;20142;28.494;-16.312;2024-01-30T02:26:36;14.70;55.40
33841;DHT22;20142;28.494;-16.312;2024-01-30T02:31:38;14.50;55.80
33841;DHT22;20142;28.494;-16.312;2024-01-30T02:36:43;14.50;56.20
33841;DHT22;20142;28.494;-16.312;2024-01-30T02:41:45;14.40;55.90
33841;DHT22;20142;28.494;-16.312;2024-01-30T02:46:46;14.30;56.30
33841;DHT22;20142;28.494;-16.312;2024-01-30T02:51:48;14.40;56.40
33841;DHT22;20142;28.494;-16.312;2024-01-30T02:56:50;14.20;56.70
33841;DHT22;20142;28.494;-16.312;2024-01-30T03:01:52;14.30;56.40
33841;DHT22;20142;28.494;-16.312;2024-01-30T03:06:54;14.20;57.00
33841;DHT22;20142;28.494;-16.312;2024-01-30T03:11:55;14.30;56.80
33841;DHT22;20142;28.494;-16.312;2024-01-30T03:16:57;14.00;56.90
33841;DHT22;20142;28.494;-16.312;2024-01-30T03:21:59;13.90;57.00
33841;DHT22;20142;28.494;-16.312;2024-01-30T03:27:01;13.90;57.00
33841;DHT22;20142;28.494;-16.312;2024-01-30T03:32:03;13.90;57.70
33841;DHT22;20142;28.494;-16.312;2024-01-30T03:37:05;13.90;57.60
33841;DHT22;20142;28.494;-16.312;2024-01-30T03:42:07;13.80;57.30
33841;DHT22;20142;28.494;-16.312;2024-01-30T03:47:08;13.90;57.60
33841;DHT22;20142;28.494;-16.312;2024-01-30T03:52:10;14.00;57.50
33841;DHT22;20142;28.494;-16.312;2024-01-30T03:57:12;14.20;57.60
33841;DHT22;20142;28.494;-16.312;2024-01-30T04:02:13;14.30;57.50
33841;DHT22;20142;28.494;-16.312;2024-01-30T04:07:15;14.60;57.40
33841;DHT22;20142;28.494;-16.312;2024-01-30T04:12:17;14.70;57.00
33841;DHT22;20142;28.494;-16.312;2024-01-30T04:17:18;14.50;56.90
33841;DHT22;20142;28.494;-16.312;2024-01-30T04:22:20;14.60;56.80
33841;DHT22;20142;28.494;-16.312;2024-01-30T04:27:22;14.70;56.70
33841;DHT22;20142;28.494;-16.312;2024-01-30T04:32:24;14.70;56.70
33841;DHT22;20142;28.494;-16.312;2024-01-30T04:37:25;14.60;56.80
33841;DHT22;20142;28.494;-16.312;2024-01-30T04:42:27;14.60;57.00
33841;DHT22;20142;28.494;-16.312;2024-01-30T04:47:29;14.60;56.60
33841;DHT22;20142;28.494;-16.312;2024-01-30T04:52:31;14.60;56.90
33841;DHT22;20142;28.494;-16.312;2024-01-30T04:57:32;14.60;57.20
33841;DHT22;20142;28.494;-16.312;2024-01-30T05:02:34;14.60;57.10
33841;DHT22;20142;28.494;-16.312;2024-01-30T05:07:38;14.50;57.10
33841;DHT22;20142;28.494;-16.312;2024-01-30T05:12:42;14.50;57.30
33841;DHT22;20142;28.494;-16.312;2024-01-30T05:17:44;14.50;57.60
33841;DHT22;20142;28.494;-16.312;2024-01-30T05:22:45;14.40;57.30
33841;DHT22;20142;28.494;-16.312;2024-01-30T05:27:47;14.20;57.50
33841;DHT22;20142;28.494;-16.312;2024-01-30T05:32:49;14.20;57.90
33841;DHT22;20142;28.494;-16.312;2024-01-30T05:37:51;14.10;58.10
33841;DHT22;20142;28.494;-16.312;2024-01-30T05:42:52;14.10;58.00
33841;DHT22;20142;28.494;-16.312;2024-01-30T05:47:54;14.00;58.00
33841;DHT22;20142;28.494;-16.312;2024-01-30T05:52:56;13.90;58.60
33841;DHT22;20142;28.494;-16.312;2024-01-30T05:57:57;14.00;58.70
33841;DHT22;20142;28.494;-16.312;2024-01-30T06:02:59;13.90;58.80
33841;DHT22;20142;28.494;-16.312;2024-01-30T06:08:02;13.80;59.00
33841;DHT22;20142;28.494;-16.312;2024-01-30T06:13:04;13.80;59.20
33841;DHT22;20142;28.494;-16.312;2024-01-30T06:18:05;13.70;59.20
33841;DHT22;20142;28.494;-16.312;2024-01-30T06:23:07;13.60;59.60
33841;DHT22;20142;28.494;-16.312;2024-01-30T06:28:09;13.70;59.70
33841;DHT22;20142;28.494;-16.312;2024-01-30T06:33:14;13.70;59.70
33841;DHT22;20142;28.494;-16.312;2024-01-30T06:38:16;13.60;60.10
33841;DHT22;20142;28.494;-16.312;2024-01-30T06:43:18;13.50;60.10
33841;DHT22;20142;28.494;-16.312;2024-01-30T06:48:19;13.50;60.30
33841;DHT22;20142;28.494;-16.312;2024-01-30T06:53:21;13.50;60.60
33841;DHT22;20142;28.494;-16.312;2024-01-30T06:58:23;13.60;60.60
33841;DHT22;20142;28.494;-16.312;2024-01-30T07:03:25;13.50;60.70
33841;DHT22;20142;28.494;-16.312;2024-01-30T07:08:26;13.60;60.80
33841;DHT22;20142;28.494;-16.312;2024-01-30T07:13:28;13.60;61.20
33841;DHT22;20142;28.494;-16.312;2024-01-30T07:18:30;13.50;61.80
33841;DHT22;20142;28.494;-16.312;2024-01-30T07:23:31;13.50;61.80
33841;DHT22;20142;28.494;-16.312;2024-01-30T07:28:35;13.40;61.60
33841;DHT22;20142;28.494;-16.312;2024-01-30T07:33:37;13.20;61.90
33841;DHT22;20142;28.494;-16.312;2024-01-30T07:38:38;13.30;62.00
33841;DHT22;20142;28.494;-16.312;2024-01-30T07:43:43;13.40;62.40
33841;DHT22;20142;28.494;-16.312;2024-01-30T07:48:45;13.20;62.30
33841;DHT22;20142;28.494;-16.312;2024-01-30T07:53:47;13.20;62.60
33841;DHT22;20142;28.494;-16.312;2024-01-30T07:58:48;13.00;62.50
33841;DHT22;20142;28.494;-16.312;2024-01-30T08:03:50;13.00;62.90
33841;DHT22;20142;28.494;-16.312;2024-01-30T08:08:52;13.10;62.80
33841;DHT22;20142;28.494;-16.312;2024-01-30T08:13:54;13.00;62.90
33841;DHT22;20142;28.494;-16.312;2024-01-30T08:18:56;13.00;62.90
33841;DHT22;20142;28.494;-16.312;2024-01-30T08:24:03;13.00;63.30
33841;DHT22;20142;28.494;-16.312;2024-01-30T08:29:05;13.30;63.70
33841;DHT22;20142;28.494;-16.312;2024-01-30T08:34:07;13.50;63.60
33841;DHT22;20142;28.494;-16.312;2024-01-30T08:39:09;13.50;63.20
33841;DHT22;20142;28.494;-16.312;2024-01-30T08:44:11;13.60;63.50
33841;DHT22;20142;28.494;-16.312;2024-01-30T08:49:13;13.60;63.60
33841;DHT22;20142;28.494;-16.312;2024-01-30T08:54:15;13.70;63.70
33841;DHT22;20142;28.494;-16.312;2024-01-30T08:59:17;13.80;63.40
33841;DHT22;20142;28.494;-16.312;2024-01-30T09:04:18;13.90;63.80
33841;DHT22;20142;28.494;-16.312;2024-01-30T09:09:20;14.20;63.80
33841;DHT22;20142;28.494;-16.312;2024-01-30T09:14:22;14.40;63.70
33841;DHT22;20142;28.494;-16.312;2024-01-30T09:19:23;14.50;63.40
33841;DHT22;20142;28.494;-16.312;2024-01-30T09:24:26;14.70;63.40
33841;DHT22;20142;28.494;-16.312;2024-01-30T09:29:28;15.00;63.60
33841;DHT22;20142;28.494;-16.312;2024-01-30T09:34:30;15.20;63.40
33841;DHT22;20142;28.494;-16.312;2024-01-30T09:39:31;15.50;62.80
33841;DHT22;20142;28.494;-16.312;2024-01-30T09:44:35;15.90;62.70
33841;DHT22;20142;28.494;-16.312;2024-01-30T09:49:38;16.30;62.10
33841;DHT22;20142;28.494;-16.312;2024-01-30T09:54:41;16.80;61.40
33841;DHT22;20142;28.494;-16.312;2024-01-30T09:59:43;17.30;60.20
33841;DHT22;20142;28.494;-16.312;2024-01-30T10:04:51;17.70;59.30
33841;DHT22;20142;28.494;-16.312;2024-01-30T10:09:53;18.00;59.20
33841;DHT22;20142;28.494;-16.312;2024-01-30T10:14:57;18.30;58.10
33841;DHT22;20142;28.494;-16.312;2024-01-30T10:19:59;18.60;57.60
33841;DHT22;20142;28.494;-16.312;2024-01-30T10:25:01;18.80;57.40
33841;DHT22;20142;28.494;-16.312;2024-01-30T10:30:04;19.20;56.60
33841;DHT22;20142;28.494;-16.312;2024-01-30T10:35:06;19.40;56.00
33841;DHT22;20142;28.494;-16.312;2024-01-30T10:40:09;19.70;55.00
33841;DHT22;20142;28.494;-16.312;2024-01-30T10:45:14;19.90;54.20
33841;DHT22;20142;28.494;-16.312;2024-01-30T10:50:20;20.00;53.90
33841;DHT22;20142;28.494;-16.312;2024-01-30T10:55:23;20.20;52.80
33841;DHT22;20142;28.494;-16.312;2024-01-30T11:00:26;20.30;53.00
33841;DHT22;20142;28.494;-16.312;2024-01-30T11:05:28;20.40;52.60
33841;DHT22;20142;28.494;-16.312;2024-01-30T11:10:30;20.60;52.10
33841;DHT22;20142;28.494;-16.312;2024-01-30T11:15:32;20.70;51.50
33841;DHT22;20142;28.494;-16.312;2024-01-30T11:20:35;20.80;51.30
33841;DHT22;20142;28.494;-16.312;2024-01-30T11:25:37;21.00;49.90
33841;DHT22;20142;28.494;-16.312;2024-01-30T11:30:39;21.20;49.50
33841;DHT22;20142;28.494;-16.312;2024-01-30T11:35:42;21.30;49.10
33841;DHT22;20142;28.494;-16.312;2024-01-30T11:40:45;21.50;48.70
33841;DHT22;20142;28.494;-16.312;2024-01-30T11:45:47;21.60;47.90
33841;DHT22;20142;28.494;-16.312;2024-01-30T11:50:49;21.70;47.40
33841;DHT22;20142;28.494;-16.312;2024-01-30T11:55:51;21.90;46.90
33841;DHT22;20142;28.494;-16.312;2024-01-30T12:00:55;21.90;46.50
33841;DHT22;20142;28.494;-16.312;2024-01-30T12:05:57;22.10;46.20
33841;DHT22;20142;28.494;-16.312;2024-01-30T12:10:59;22.20;45.80
33841;DHT22;20142;28.494;-16.312;2024-01-30T12:16:06;22.40;45.50
33841;DHT22;20142;28.494;-16.312;2024-01-30T12:21:08;22.40;44.70
33841;DHT22;20142;28.494;-16.312;2024-01-30T12:26:10;22.50;44.30
33841;DHT22;20142;28.494;-16.312;2024-01-30T12:31:12;22.60;43.90
33841;DHT22;20142;28.494;-16.312;2024-01-30T12:36:13;22.60;43.70
33841;DHT22;20142;28.494;-16.312;2024-01-30T12:41:15;22.70;43.00
33841;DHT22;20142;28.494;-16.312;2024-01-30T12:46:17;22.70;42.60
33841;DHT22;20142;28.494;-16.312;2024-01-30T12:51:19;22.80;43.00
33841;DHT22;20142;28.494;-16.312;2024-01-30T12:56:20;22.90;42.60
33841;DHT22;20142;28.494;-16.312;2024-01-30T13:01:22;23.00;42.60
33841;DHT22;20142;28.494;-16.312;2024-01-30T13:06:24;23.00;42.10
33841;DHT22;20142;28.494;-16.312;2024-01-30T13:11:26;23.00;41.70
33841;DHT22;20142;28.494;-16.312;2024-01-30T13:16:27;23.10;41.50
33841;DHT22;20142;28.494;-16.312;2024-01-30T13:21:29;23.20;41.40
33841;DHT22;20142;28.494;-16.312;2024-01-30T13:26:34;23.20;40.80
33841;DHT22;20142;28.494;-16.312;2024-01-30T13:31:36;23.30;40.60
33841;DHT22;20142;28.494;-16.312;2024-01-30T13:36:38;23.40;41.00
33841;DHT22;20142;28.494;-16.312;2024-01-30T13:41:42;23.40;40.60
33841;DHT22;20142;28.494;-16.312;2024-01-30T13:46:43;23.50;40.20
33841;DHT22;20142;28.494;-16.312;2024-01-30T13:51:45;23.60;40.10
33841;DHT22;20142;28.494;-16.312;2024-01-30T13:56:47;23.60;39.20
33841;DHT22;20142;28.494;-16.312;2024-01-30T14:01:49;23.70;38.90
33841;DHT22;20142;28.494;-16.312;2024-01-30T14:06:50;23.80;38.80
33841;DHT22;20142;28.494;-16.312;2024-01-30T14:11:52;23.80;38.90
33841;DHT22;20142;28.494;-16.312;2024-01-30T14:16:54;24.00;38.90
33841;DHT22;20142;28.494;-16.312;2024-01-30T14:21:55;24.00;38.60
33841;DHT22;20142;28.494;-16.312;2024-01-30T14:26:57;24.10;38.40
33841;DHT22;20142;28.494;-16.312;2024-01-30T14:32:00;24.20;38.50
33841;DHT22;20142;28.494;-16.312;2024-01-30T14:37:03;24.30;38.00
33841;DHT22;20142;28.494;-16.312;2024-01-30T14:42:05;24.50;38.00
33841;DHT22;20142;28.494;-16.312;2024-01-30T14:47:07;24.60;37.30
33841;DHT22;20142;28.494;-16.312;2024-01-30T14:52:08;24.70;37.40
33841;DHT22;20142;28.494;-16.312;2024-01-30T14:57:12;24.90;37.50
33841;DHT22;20142;28.494;-16.312;2024-01-30T15:02:15;25.20;37.30
33841;DHT22;20142;28.494;-16.312;2024-01-30T15:07:17;25.40;37.00
33841;DHT22;20142;28.494;-16.312;2024-01-30T15:12:18;25.70;37.30
33841;DHT22;20142;28.494;-16.312;2024-01-30T15:17:20;26.40;37.30
33841;DHT22;20142;28.494;-16.312;2024-01-30T15:22:25;28.10;38.40
33841;DHT22;20142;28.494;-16.312;2024-01-30T15:27:26;33.00;34.90
33841;DHT22;20142;28.494;-16.312;2024-01-30T15:32:28;36.10;32.60
33841;DHT22;20142;28.494;-16.312;2024-01-30T15:37:30;38.80;31.90
33841;DHT22;20142;28.494;-16.312;2024-01-30T15:42:34;41.00;30.40
33841;DHT22;20142;28.494;-16.312;2024-01-30T15:47:36;42.30;30.00
33841;DHT22;20142;28.494;-16.312;2024-01-30T15:52:39;43.30;29.40
33841;DHT22;20142;28.494;-16.312;2024-01-30T15:57:41;43.80;28.70
33841;DHT22;20142;28.494;-16.312;2024-01-30T16:02:43;44.30;28.40
33841;DHT22;20142;28.494;-16.312;2024-01-30T16:07:44;44.40;27.80
33841;DHT22;20142;28.494;-16.312;2024-01-30T16:12:46;44.00;27.10
33841;DHT22;20142;28.494;-16.312;2024-01-30T16:17:48;43.80;27.00
33841;DHT22;20142;28.494;-16.312;2024-01-30T16:22:49;43.40;26.70
33841;DHT22;20142;28.494;-16.312;2024-01-30T16:27:54;43.70;26.80
33841;DHT22;20142;28.494;-16.312;2024-01-30T16:32:55;43.70;26.10
33841;DHT22;20142;28.494;-16.312;2024-01-30T16:37:57;44.30;26.10
33841;DHT22;20142;28.494;-16.312;2024-01-30T16:42:59;44.30;25.80
33841;DHT22;20142;28.494;-16.312;2024-01-30T16:48:00;43.70;25.60
33841;DHT22;20142;28.494;-16.312;2024-01-30T16:53:02;43.60;25.70
33841;DHT22;20142;28.494;-16.312;2024-01-30T16:58:04;43.50;25.20
33841;DHT22;20142;28.494;-16.312;2024-01-30T17:03:06;42.90;25.20
33841;DHT22;20142;28.494;-16.312;2024-01-30T17:08:08;42.20;24.60
33841;DHT22;20142;28.494;-16.312;2024-01-30T17:13:10;41.30;24.40
33841;DHT22;20142;28.494;-16.312;2024-01-30T17:18:11;40.10;23.80
33841;DHT22;20142;28.494;-16.312;2024-01-30T17:23:13;38.80;23.40
33841;DHT22;20142;28.494;-16.312;2024-01-30T17:28:15;38.10;23.50
33841;DHT22;20142;28.494;-16.312;2024-01-30T17:33:17;37.20;23.40
33841;DHT22;20142;28.494;-16.312;2024-01-30T17:38:19;36.50;23.90
33841;DHT22;20142;28.494;-16.312;2024-01-30T17:43:21;35.20;23.70
33841;DHT22;20142;28.494;-16.312;2024-01-30T17:48:23;34.60;23.80
33841;DHT22;20142;28.494;-16.312;2024-01-30T17:53:24;33.30;25.00
33841;DHT22;20142;28.494;-16.312;2024-01-30T17:58:26;31.70;26.20
33841;DHT22;20142;28.494;-16.312;2024-01-30T18:03:28;30.40;27.10
33841;DHT22;20142;28.494;-16.312;2024-01-30T18:08:32;29.50;28.00
33841;DHT22;20142;28.494;-16.312;2024-01-30T18:13:34;28.70;28.80
33841;DHT22;20142;28.494;-16.312;2024-01-30T18:18:35;28.10;29.10
33841;DHT22;20142;28.494;-16.312;2024-01-30T18:23:37;27.40;29.70
33841;DHT22;20142;28.494;-16.312;2024-01-30T18:28:39;26.80;29.70
33841;DHT22;20142;28.494;-16.312;2024-01-30T18:33:40;26.00;30.90
33841;DHT22;20142;28.494;-16.312;2024-01-30T18:38:42;25.50;31.40
33841;DHT22;20142;28.494;-16.312;2024-01-30T18:43:44;25.00;32.00
33841;DHT22;20142;28.494;-16.312;2024-01-30T18:48:46;24.50;32.30
33841;DHT22;20142;28.494;-16.312;2024-01-30T18:53:48;24.00;33.10
33841;DHT22;20142;28.494;-16.312;2024-01-30T18:58:49;23.70;33.60
33841;DHT22;20142;28.494;-16.312;2024-01-30T19:03:53;23.30;34.90
33841;DHT22;20142;28.494;-16.312;2024-01-30T19:08:55;23.00;35.20
33841;DHT22;20142;28.494;-16.312;2024-01-30T19:13:56;22.70;35.60
33841;DHT22;20142;28.494;-16.312;2024-01-30T19:18:58;22.40;35.90
33841;DHT22;20142;28.494;-16.312;2024-01-30T19:24:00;22.10;36.30
33841;DHT22;20142;28.494;-16.312;2024-01-30T19:29:02;22.00;36.30
33841;DHT22;20142;28.494;-16.312;2024-01-30T19:34:03;21.90;36.40
33841;DHT22;20142;28.494;-16.312;2024-01-30T19:39:06;21.70;36.90
33841;DHT22;20142;28.494;-16.312;2024-01-30T19:44:13;21.60;37.00
33841;DHT22;20142;28.494;-16.312;2024-01-30T19:49:15;21.50;37.00
33841;DHT22;20142;28.494;-16.312;2024-01-30T19:54:19;21.30;37.30
33841;DHT22;20142;28.494;-16.312;2024-01-30T19:59:23;21.20;37.40
33841;DHT22;20142;28.494;-16.312;2024-01-30T20:04:25;21.20;37.70
33841;DHT22;20142;28.494;-16.312;2024-01-30T20:09:26;21.10;37.70
33841;DHT22;20142;28.494;-16.312;2024-01-30T20:14:29;20.90;38.00
33841;DHT22;20142;28.494;-16.312;2024-01-30T20:19:31;20.80;38.80
33841;DHT22;20142;28.494;-16.312;2024-01-30T20:24:33;20.70;39.30
33841;DHT22;20142;28.494;-16.312;2024-01-30T20:29:35;20.60;39.70
33841;DHT22;20142;28.494;-16.312;2024-01-30T20:34:37;20.40;40.20
33841;DHT22;20142;28.494;-16.312;2024-01-30T20:39:39;20.30;40.90
33841;DHT22;20142;28.494;-16.312;2024-01-30T20:44:42;20.30;40.90
33841;DHT22;20142;28.494;-16.312;2024-01-30T20:49:43;20.20;41.20
33841;DHT22;20142;28.494;-16.312;2024-01-30T20:54:45;20.20;41.30
33841;DHT22;20142;28.494;-16.312;2024-01-30T20:59:47;20.10;41.20
33841;DHT22;20142;28.494;-16.312;2024-01-30T21:04:48;20.10;41.10
33841;DHT22;20142;28.494;-16.312;2024-01-30T21:09:50;19.90;41.00
33841;DHT22;20142;28.494;-16.312;2024-01-30T21:14:52;20.00;41.10
33841;DHT22;20142;28.494;-16.312;2024-01-30T21:19:54;19.90;41.00
33841;DHT22;20142;28.494;-16.312;2024-01-30T21:24:55;19.90;40.70
33841;DHT22;20142;28.494;-16.312;2024-01-30T21:29:57;19.90;40.50
33841;DHT22;20142;28.494;-16.312;2024-01-30T21:34:59;19.70;40.70
33841;DHT22;20142;28.494;-16.312;2024-01-30T21:40:01;19.60;41.10
33841;DHT22;20142;28.494;-16.312;2024-01-30T21:45:05;19.60;41.90
33841;DHT22;20142;28.494;-16.312;2024-01-30T21:50:07;19.50;42.30
33841;DHT22;20142;28.494;-16.312;2024-01-30T21:55:09;19.30;42.70
33841;DHT22;20142;28.494;-16.312;2024-01-30T22:00:12;19.20;42.90
33841;DHT22;20142;28.494;-16.312;2024-01-30T22:05:14;18.90;43.80
33841;DHT22;20142;28.494;-16.312;2024-01-30T22:10:16;18.70;44.20
33841;DHT22;20142;28.494;-16.312;2024-01-30T22:15:17;18.70;44.80
33841;DHT22;20142;28.494;-16.312;2024-01-30T22:20:19;18.50;45.40
33841;DHT22;20142;28.494;-16.312;2024-01-30T22:25:21;18.40;45.90
33841;DHT22;20142;28.494;-16.312;2024-01-30T22:30:22;18.10;47.30
33841;DHT22;20142;28.494;-16.312;2024-01-30T22:35:24;18.10;47.50
33841;DHT22;20142;28.494;-16.312;2024-01-30T22:40:26;18.10;47.90
33841;DHT22;20142;28.494;-16.312;2024-01-30T22:45:28;18.00;48.20
33841;DHT22;20142;28.494;-16.312;2024-01-30T22:50:29;17.90;48.60
33841;DHT22;20142;28.494;-16.312;2024-01-30T22:55:31;17.80;48.40
33841;DHT22;20142;28.494;-16.312;2024-01-30T23:00:33;17.70;48.80
33841;DHT22;20142;28.494;-16.312;2024-01-30T23:05:34;17.60;48.80
33841;DHT22;20142;28.494;-16.312;2024-01-30T23:10:36;17.50;49.00
33841;DHT22;20142;28.494;-16.312;2024-01-30T23:15:38;17.40;48.90
33841;DHT22;20142;28.494;-16.312;2024-01-30T23:20:39;17.30;49.10
33841;DHT22;20142;28.494;-16.312;2024-01-30T23:25:41;17.20;49.30
33841;DHT22;20142;28.494;-16.312;2024-01-30T23:30:43;17.10;49.20
33841;DHT22;20142;28.494;-16.312;2024-01-30T23:35:44;17.20;49.20
33841;DHT22;20142;28.494;-16.312;2024-01-30T23:40:46;17.10;49.30
33841;DHT22;20142;28.494;-16.312;2024-01-30T23:45:49;17.00;49.60
33841;DHT22;20142;28.494;-16.312;2024-01-30T23:50:51;16.90;49.20
33841;DHT22;20142;28.494;-16.312;2024-01-30T23:55:53;16.80;49.30
